Wetterdaten: Woche 23.12.19 - 29.12.19 (KW52)
Datum Zeit Temp. A. Feuchte A. Luftdruck Regen Wind Richtung Taupunkt Windchill Windben
23.12.2019 00:00 6,5 C 81 % 992,1 hPa 1,0 l/m 6,6 km/h N 3,5 C 5,8 C 23,7 km/h
23.12.2019 01:00 6,8 C 81 % 992,5 hPa 2,6 l/m 8,3 km/h N 3,8 C 5,3 C 22,9 km/h
23.12.2019 02:00 7,0 C 82 % 993,0 hPa 2,6 l/m 9,8 km/h N 4,1 C 4,4 C 27,8 km/h
23.12.2019 03:00 7,1 C 82 % 993,6 hPa 3,6 l/m 10,5 km/h N 4,2 C 4,1 C 30,2 km/h
23.12.2019 04:00 7,0 C 82 % 994,2 hPa 2,3 l/m 8,3 km/h N 4,1 C 5,5 C 30,2 km/h
23.12.2019 05:00 6,9 C 82 % 994,8 hPa 1,3 l/m 9,6 km/h N 4,0 C 4,4 C 33,4 km/h
23.12.2019 06:00 6,8 C 82 % 995,6 hPa 2,1 l/m 12,3 km/h N 3,9 C 2,7 C 33,0 km/h
23.12.2019 07:00 6,6 C 82 % 996,6 hPa 2,1 l/m 14,1 km/h N 3,8 C 1,5 C 33,4 km/h
23.12.2019 08:00 6,6 C 82 % 997,8 hPa 2,9 l/m 14,8 km/h N 3,8 C 1,1 C 34,6 km/h
23.12.2019 09:00 6,4 C 82 % 999,0 hPa 3,4 l/m 16,4 km/h N 3,6 C 0,2 C 37,8 km/h
23.12.2019 10:00 6,3 C 82 % 999,8 hPa 3,9 l/m 17,2 km/h N 3,5 C -0,3 C 39,4 km/h
23.12.2019 11:00 6,3 C 82 % 1000,4 hPa 2,6 l/m 14,9 km/h N 3,5 C 0,8 C 33,4 km/h
23.12.2019 12:00 6,6 C 82 % 1000,7 hPa 1,8 l/m 15,7 km/h N 3,8 C 0,8 C 37,0 km/h
23.12.2019 13:00 6,8 C 82 % 1001,5 hPa 1,3 l/m 14,3 km/h N 3,9 C 1,6 C 35,0 km/h
23.12.2019 14:00 7,4 C 81 % 1002,3 hPa 0,0 l/m 14,6 km/h N 4,4 C 2,3 C 33,0 km/h
23.12.2019 15:00 7,7 C 79 % 1003,2 hPa 0,0 l/m 13,5 km/h N 4,2 C 3,1 C 32,2 km/h
23.12.2019 16:00 7,9 C 76 % 1004,1 hPa 0,0 l/m 14,4 km/h N 4,0 C 2,9 C 34,2 km/h
23.12.2019 17:00 7,8 C 77 % 1004,9 hPa 0,0 l/m 13,9 km/h N 4,0 C 3,0 C 35,8 km/h
23.12.2019 18:00 7,7 C 77 % 1005,9 hPa 0,3 l/m 13,9 km/h N 4,0 C 2,9 C 37,0 km/h
23.12.2019 19:00 7,7 C 77 % 1006,8 hPa 0,0 l/m 12,8 km/h N 3,9 C 3,4 C 35,4 km/h
23.12.2019 20:00 7,7 C 78 % 1007,3 hPa 0,0 l/m 12,3 km/h N 4,0 C 3,7 C 32,6 km/h
23.12.2019 21:00 7,9 C 77 % 1007,9 hPa 0,0 l/m 12,1 km/h N 4,0 C 4,0 C 35,0 km/h
23.12.2019 22:00 7,7 C 76 % 1009,0 hPa 0,0 l/m 11,6 km/h N 3,8 C 4,1 C 33,0 km/h
23.12.2019 23:00 7,4 C 75 % 1010,0 hPa 0,0 l/m 12,1 km/h N 3,4 C 3,5 C 33,8 km/h
24.12.2019 00:00 7,4 C 72 % 1010,5 hPa 0,0 l/m 12,5 km/h N 2,7 C 3,3 C 38,6 km/h
24.12.2019 01:00 7,2 C 73 % 1011,0 hPa 0,0 l/m 11,9 km/h N 2,7 C 3,4 C 32,6 km/h
24.12.2019 02:00 7,1 C 75 % 1011,6 hPa 0,0 l/m 12,1 km/h N 2,9 C 3,2 C 32,6 km/h
24.12.2019 03:00 7,2 C 75 % 1012,2 hPa 0,0 l/m 11,6 km/h N 3,0 C 3,6 C 31,0 km/h
24.12.2019 04:00 7,3 C 76 % 1012,8 hPa 0,0 l/m 11,1 km/h N 3,4 C 4,0 C 34,2 km/h
24.12.2019 05:00 6,9 C 80 % 1013,5 hPa 0,3 l/m 10,5 km/h N 3,7 C 3,9 C 29,8 km/h
24.12.2019 06:00 7,3 C 78 % 1014,0 hPa 0,0 l/m 11,5 km/h N 3,7 C 3,7 C 30,6 km/h
24.12.2019 07:00 7,2 C 75 % 1014,5 hPa 0,0 l/m 9,3 km/h N 3,0 C 5,0 C 30,2 km/h
24.12.2019 08:00 7,2 C 74 % 1014,9 hPa 0,0 l/m 8,4 km/h N 2,9 C 5,6 C 28,2 km/h
24.12.2019 09:00 7,3 C 74 % 1015,3 hPa 0,0 l/m 7,8 km/h N 2,9 C 6,2 C 26,5 km/h
24.12.2019 10:00 7,7 C 73 % 1015,4 hPa 0,0 l/m 8,3 km/h N 3,2 C 6,3 C 27,4 km/h
24.12.2019 11:00 8,2 C 70 % 1015,3 hPa 0,0 l/m 8,7 km/h N 2,9 C 6,5 C 29,0 km/h
24.12.2019 12:00 8,5 C 67 % 1014,5 hPa 0,0 l/m 7,5 km/h N 2,8 C 7,2 C 29,0 km/h
24.12.2019 13:00 8,8 C 65 % 1014,1 hPa 0,0 l/m 4,3 km/h N 2,5 C 8,6 C 19,7 km/h
24.12.2019 14:00 8,6 C 66 % 1013,6 hPa 0,0 l/m 0,6 km/h N 2,5 C 8,6 C 8,9 km/h
24.12.2019 15:00 8,3 C 65 % 1012,9 hPa 0,0 l/m 0,3 km/h N 2,0 C 8,3 C 4,0 km/h
24.12.2019 16:00 6,8 C 68 % 1012,5 hPa 0,0 l/m 0,0 km/h N 1,2 C 6,8 C 0,0 km/h
24.12.2019 17:00 4,4 C 74 % 1011,9 hPa 0,0 l/m 0,0 km/h N 0,2 C 4,4 C 0,0 km/h
24.12.2019 18:00 3,5 C 80 % 1012,0 hPa 0,0 l/m 0,0 km/h N 0,3 C 3,5 C 0,0 km/h
24.12.2019 19:00 4,9 C 81 % 1012,2 hPa 2,6 l/m 0,0 km/h N 1,9 C 4,9 C 0,0 km/h
24.12.2019 20:00 5,0 C 82 % 1011,8 hPa 0,5 l/m 0,0 km/h N 2,1 C 5,0 C 0,0 km/h
24.12.2019 21:00 5,4 C 82 % 1011,3 hPa 0,0 l/m 1,9 km/h N 2,6 C 5,4 C 14,9 km/h
24.12.2019 22:00 7,2 C 80 % 1011,0 hPa 0,3 l/m 6,1 km/h N 3,9 C 7,0 C 21,3 km/h
24.12.2019 23:00 8,0 C 76 % 1010,7 hPa 0,0 l/m 7,5 km/h N 4,0 C 7,1 C 24,5 km/h
25.12.2019 00:00 8,3 C 75 % 1010,2 hPa 0,0 l/m 9,8 km/h N 4,0 C 5,8 C 28,6 km/h
25.12.2019 01:00 8,6 C 72 % 1010,1 hPa 0,0 l/m 9,8 km/h N 3,8 C 6,2 C 31,8 km/h
25.12.2019 02:00 8,6 C 73 % 1010,1 hPa 0,0 l/m 8,5 km/h N 3,9 C 7,0 C 29,8 km/h
25.12.2019 03:00 8,6 C 73 % 1010,3 hPa 0,0 l/m 9,8 km/h N 4,0 C 6,3 C 34,2 km/h
25.12.2019 04:00 8,5 C 75 % 1010,8 hPa 0,3 l/m 9,5 km/h N 4,3 C 6,2 C 30,2 km/h
25.12.2019 05:00 8,2 C 76 % 1011,2 hPa 0,0 l/m 7,5 km/h N 4,2 C 7,4 C 26,9 km/h
25.12.2019 06:00 8,6 C 73 % 1011,1 hPa 0,0 l/m 9,3 km/h N 4,1 C 6,5 C 29,8 km/h
25.12.2019 07:00 8,5 C 74 % 1011,7 hPa 0,0 l/m 8,5 km/h N 4,1 C 6,9 C 33,0 km/h
25.12.2019 08:00 8,5 C 74 % 1012,0 hPa 0,0 l/m 7,8 km/h N 4,1 C 7,4 C 31,0 km/h
25.12.2019 09:00 8,8 C 73 % 1012,3 hPa 0,0 l/m 6,6 km/h N 4,3 C 8,3 C 25,3 km/h
25.12.2019 10:00 8,9 C 74 % 1012,4 hPa 0,0 l/m 6,3 km/h N 4,5 C 8,3 C 27,0 km/h
25.12.2019 11:00 8,8 C 73 % 1012,3 hPa 0,0 l/m 6,2 km/h N 4,1 C 8,5 C 25,3 km/h
25.12.2019 12:00 9,5 C 70 % 1011,8 hPa 0,0 l/m 7,4 km/h N 4,3 C 8,5 C 27,4 km/h
25.12.2019 13:00 9,8 C 69 % 1011,8 hPa 0,0 l/m 7,2 km/h N 4,4 C 9,3 C 30,6 km/h
25.12.2019 14:00 9,4 C 72 % 1012,0 hPa 0,0 l/m 4,4 km/h N 4,6 C 9,4 C 19,3 km/h
25.12.2019 15:00 8,8 C 73 % 1012,4 hPa 0,0 l/m 2,8 km/h N 4,3 C 8,8 C 18,1 km/h
25.12.2019 16:00 8,4 C 76 % 1013,1 hPa 0,0 l/m 4,3 km/h N 4,3 C 8,4 C 19,3 km/h
25.12.2019 17:00 7,6 C 80 % 1014,0 hPa 1,6 l/m 4,5 km/h N 4,4 C 7,6 C 21,3 km/h
25.12.2019 18:00 7,3 C 81 % 1014,7 hPa 0,5 l/m 4,8 km/h N 4,3 C 7,3 C 21,3 km/h
25.12.2019 19:00 6,9 C 82 % 1015,5 hPa 0,3 l/m 4,0 km/h N 4,0 C 6,9 C 18,9 km/h
25.12.2019 20:00 6,7 C 82 % 1016,2 hPa 0,0 l/m 4,7 km/h N 3,8 C 6,6 C 20,5 km/h
25.12.2019 21:00 6,2 C 81 % 1017,4 hPa 0,0 l/m 5,2 km/h N 3,2 C 6,0 C 23,7 km/h
25.12.2019 22:00 5,9 C 80 % 1018,3 hPa 0,0 l/m 5,6 km/h N 2,6 C 5,8 C 25,4 km/h
25.12.2019 23:00 5,8 C 75 % 1019,1 hPa 0,0 l/m 6,2 km/h N 1,8 C 5,5 C 28,1 km/h
26.12.2019 00:00 5,9 C 75 % 1019,6 hPa 0,0 l/m 8,1 km/h N 1,9 C 4,5 C 28,2 km/h
26.12.2019 01:00 6,0 C 77 % 1020,1 hPa 0,0 l/m 3,8 km/h N 2,3 C 6,0 C 18,1 km/h
26.12.2019 02:00 6,0 C 78 % 1020,5 hPa 0,0 l/m 7,8 km/h N 2,5 C 4,5 C 23,7 km/h
26.12.2019 03:00 5,9 C 79 % 1020,9 hPa 0,3 l/m 8,2 km/h N 2,5 C 4,4 C 27,0 km/h
26.12.2019 04:00 5,9 C 80 % 1021,3 hPa 0,0 l/m 7,1 km/h N 2,6 C 5,2 C 25,3 km/h
26.12.2019 05:00 5,7 C 80 % 1021,7 hPa 0,0 l/m 5,3 km/h N 2,4 C 5,4 C 22,9 km/h
26.12.2019 06:00 5,4 C 80 % 1022,1 hPa 0,0 l/m 3,4 km/h N 2,2 C 5,4 C 18,5 km/h
26.12.2019 07:00 4,8 C 80 % 1022,3 hPa 0,0 l/m 1,9 km/h N 1,7 C 4,8 C 12,9 km/h
26.12.2019 08:00 4,8 C 79 % 1022,8 hPa 0,0 l/m 3,7 km/h N 1,4 C 4,8 C 17,7 km/h
26.12.2019 09:00 5,3 C 79 % 1023,2 hPa 0,0 l/m 4,4 km/h N 1,8 C 5,3 C 20,9 km/h
26.12.2019 10:00 5,7 C 79 % 1023,7 hPa 0,0 l/m 5,0 km/h N 2,3 C 5,7 C 20,9 km/h
26.12.2019 11:00 6,1 C 78 % 1023,7 hPa 0,0 l/m 4,8 km/h N 2,4 C 5,9 C 20,9 km/h
26.12.2019 12:00 6,1 C 76 % 1023,5 hPa 0,3 l/m 2,6 km/h N 2,2 C 6,1 C 17,3 km/h
26.12.2019 13:00 6,2 C 77 % 1023,4 hPa 0,0 l/m 1,6 km/h N 2,6 C 6,2 C 12,5 km/h
26.12.2019 14:00 6,4 C 73 % 1023,5 hPa 0,0 l/m 0,8 km/h N 1,9 C 6,4 C 8,4 km/h
26.12.2019 15:00 5,9 C 71 % 1023,9 hPa 0,0 l/m 3,3 km/h N 1,0 C 5,9 C 17,3 km/h
26.12.2019 16:00 5,4 C 73 % 1024,1 hPa 0,0 l/m 0,1 km/h N 1,0 C 5,4 C 2,0 km/h
26.12.2019 17:00 4,9 C 75 % 1024,2 hPa 0,0 l/m 0,0 km/h N 0,9 C 4,9 C 0,0 km/h
26.12.2019 18:00 4,6 C 77 % 1024,2 hPa 0,0 l/m 0,0 km/h N 0,9 C 4,6 C 0,0 km/h
26.12.2019 19:00 4,2 C 79 % 1024,4 hPa 0,0 l/m 0,0 km/h N 0,9 C 4,2 C 0,0 km/h
26.12.2019 20:00 3,1 C 80 % 1024,0 hPa 0,0 l/m 0,0 km/h N -0,0 C 3,1 C 0,0 km/h
26.12.2019 21:00 1,4 C 81 % 1024,1 hPa 0,0 l/m 0,0 km/h N -1,6 C 1,4 C 0,0 km/h
26.12.2019 22:00 1,1 C 82 % 1024,4 hPa 0,0 l/m 0,0 km/h N -1,6 C 1,1 C 0,0 km/h
26.12.2019 23:00 2,0 C 82 % 1024,4 hPa 0,0 l/m 0,0 km/h N -0,7 C 2,0 C 0,4 km/h
27.12.2019 00:00 3,5 C 81 % 1024,2 hPa 0,0 l/m 0,1 km/h N 0,5 C 3,5 C 2,4 km/h
27.12.2019 01:00 3,9 C 78 % 1024,0 hPa 0,0 l/m 0,0 km/h N 0,3 C 3,9 C 0,0 km/h
27.12.2019 02:00 3,7 C 78 % 1024,1 hPa 0,0 l/m 0,0 km/h N 0,2 C 3,7 C 0,8 km/h
27.12.2019 03:00 3,8 C 77 % 1023,8 hPa 0,0 l/m 0,1 km/h N 0,1 C 3,8 C 2,8 km/h
27.12.2019 04:00 3,7 C 77 % 1023,5 hPa 0,0 l/m 0,4 km/h N 0,1 C 3,7 C 4,0 km/h
27.12.2019 05:00 3,6 C 77 % 1023,3 hPa 0,0 l/m 1,4 km/h N -0,0 C 3,6 C 8,4 km/h
27.12.2019 06:00 3,3 C 77 % 1023,2 hPa 0,0 l/m 0,2 km/h N -0,2 C 3,3 C 3,2 km/h
27.12.2019 07:00 2,8 C 78 % 1023,3 hPa 0,0 l/m 0,0 km/h N -0,6 C 2,8 C 0,0 km/h
27.12.2019 08:00 2,9 C 80 % 1023,9 hPa 0,0 l/m 0,4 km/h N -0,2 C 2,9 C 3,6 km/h
27.12.2019 09:00 3,9 C 79 % 1024,2 hPa 0,0 l/m 0,9 km/h N 0,5 C 3,9 C 6,8 km/h
27.12.2019 10:00 4,6 C 75 % 1024,6 hPa 0,0 l/m 2,1 km/h N 0,6 C 4,6 C 10,1 km/h
27.12.2019 11:00 4,9 C 71 % 1024,4 hPa 0,0 l/m 3,8 km/h N 0,1 C 4,9 C 12,9 km/h
27.12.2019 12:00 5,5 C 62 % 1024,2 hPa 0,0 l/m 5,7 km/h N -1,2 C 5,5 C 18,9 km/h
27.12.2019 13:00 5,7 C 60 % 1024,3 hPa 0,0 l/m 7,2 km/h N -1,4 C 5,0 C 19,3 km/h
27.12.2019 14:00 5,7 C 58 % 1024,9 hPa 0,0 l/m 5,8 km/h N -1,9 C 5,3 C 20,1 km/h
27.12.2019 15:00 5,0 C 61 % 1025,7 hPa 0,0 l/m 3,0 km/h N -1,8 C 5,0 C 11,7 km/h
27.12.2019 16:00 5,0 C 61 % 1026,4 hPa 0,0 l/m 4,0 km/h N -1,9 C 5,0 C 14,1 km/h
27.12.2019 17:00 4,8 C 64 % 1026,9 hPa 0,0 l/m 3,1 km/h N -1,5 C 4,8 C 12,1 km/h
27.12.2019 18:00 4,6 C 64 % 1027,6 hPa 0,0 l/m 4,2 km/h N -1,6 C 4,4 C 18,1 km/h
27.12.2019 19:00 4,7 C 63 % 1028,4 hPa 0,0 l/m 7,2 km/h N -1,8 C 3,9 C 24,1 km/h
27.12.2019 20:00 4,3 C 68 % 1029,3 hPa 0,0 l/m 7,1 km/h N -1,0 C 3,5 C 24,5 km/h
27.12.2019 21:00 3,9 C 71 % 1030,1 hPa 0,0 l/m 4,3 km/h N -1,0 C 3,9 C 18,5 km/h
27.12.2019 22:00 3,7 C 71 % 1030,3 hPa 0,0 l/m 4,0 km/h N -1,0 C 3,7 C 16,1 km/h
27.12.2019 23:00 3,5 C 72 % 1031,0 hPa 0,3 l/m 4,7 km/h N -1,1 C 3,5 C 18,9 km/h
28.12.2019 00:00 2,2 C 80 % 1031,6 hPa 0,0 l/m 7,5 km/h N -0,9 C 1,0 C 18,1 km/h
28.12.2019 01:00 2,4 C 80 % 1031,7 hPa 0,0 l/m 8,6 km/h N -0,6 C 0,4 C 21,3 km/h
28.12.2019 02:00 3,0 C 78 % 1032,0 hPa 0,0 l/m 9,1 km/h N -0,5 C 0,5 C 22,5 km/h
28.12.2019 03:00 2,9 C 78 % 1032,0 hPa 0,0 l/m 8,3 km/h N -0,6 C 1,2 C 22,1 km/h
28.12.2019 04:00 3,0 C 77 % 1031,9 hPa 0,0 l/m 9,4 km/h N -0,7 C 0,3 C 24,9 km/h
28.12.2019 05:00 2,9 C 77 % 1032,3 hPa 0,0 l/m 10,4 km/h N -0,8 C -0,6 C 26,1 km/h
28.12.2019 06:00 2,2 C 78 % 1032,7 hPa 0,3 l/m 10,1 km/h N -1,3 C -1,0 C 27,8 km/h
28.12.2019 07:00 0,8 C 82 % 1033,8 hPa 0,0 l/m 9,1 km/h N -1,9 C -1,7 C 22,1 km/h
28.12.2019 08:00 1,0 C 81 % 1034,4 hPa 0,0 l/m 9,8 km/h N -1,9 C -2,1 C 23,3 km/h
28.12.2019 09:00 1,9 C 74 % 1035,0 hPa 0,0 l/m 10,6 km/h N -2,3 C -1,8 C 27,4 km/h
28.12.2019 10:00 2,3 C 68 % 1035,4 hPa 0,0 l/m 11,4 km/h N -3,0 C -1,9 C 28,5 km/h
28.12.2019 11:00 2,4 C 67 % 1035,7 hPa 0,0 l/m 10,3 km/h N -3,1 C -1,0 C 25,3 km/h
28.12.2019 12:00 2,6 C 65 % 1035,8 hPa 0,0 l/m 10,9 km/h N -3,4 C -1,1 C 26,2 km/h
28.12.2019 13:00 2,4 C 63 % 1035,8 hPa 0,3 l/m 11,4 km/h N -3,9 C -1,8 C 27,8 km/h
28.12.2019 14:00 2,1 C 62 % 1036,1 hPa 0,0 l/m 12,8 km/h N -4,5 C -3,1 C 28,2 km/h
28.12.2019 15:00 1,8 C 62 % 1036,7 hPa 0,0 l/m 9,2 km/h N -4,7 C -0,8 C 26,2 km/h
28.12.2019 16:00 1,2 C 64 % 1037,1 hPa 0,0 l/m 9,5 km/h N -4,8 C -1,7 C 21,3 km/h
28.12.2019 17:00 1,2 C 65 % 1037,6 hPa 0,0 l/m 10,3 km/h N -4,6 C -2,4 C 24,9 km/h
28.12.2019 18:00 1,3 C 65 % 1038,1 hPa 0,0 l/m 10,3 km/h N -4,5 C -2,2 C 25,0 km/h
28.12.2019 19:00 1,3 C 65 % 1038,7 hPa 0,0 l/m 10,3 km/h N -4,6 C -2,2 C 24,5 km/h
28.12.2019 20:00 1,3 C 65 % 1039,0 hPa 0,0 l/m 11,6 km/h N -4,5 C -3,2 C 28,6 km/h
28.12.2019 21:00 1,2 C 65 % 1039,1 hPa 0,0 l/m 9,8 km/h N -4,7 C -1,9 C 25,8 km/h
28.12.2019 22:00 1,2 C 65 % 1039,3 hPa 0,0 l/m 9,6 km/h N -4,6 C -1,7 C 24,9 km/h
28.12.2019 23:00 1,2 C 64 % 1039,3 hPa 0,0 l/m 9,5 km/h N -4,8 C -1,7 C 24,1 km/h
Min-Datum _ 28.12.19 27.12.19 23.12.19 - 24.12.19 - 28.12.19 28.12.19 24.12.19
_ Min-Zeit 07:30 14:30 00:15 - 15:30 - 16:00 06:45 15:30
Minimum _ 0,7 C 56 % 991,9 hPa - 0,0 km/h - -4,9 C -4,2 C 0,0 km/h
Max-Datum _ 25.12.19 23.12.19 28.12.19 23.12.19 23.12.19 - 25.12.19 25.12.19 24.12.19
_ Max-Zeit 13:00 02:30 22:15 10:15 10:45 - 10:00 13:30 00:45
Maximum _ 9,9 C 82 % 1039,3 hPa 3,9 l/m 18,1 km/h
N
- 4,6 C 9,8 C 49,9 km/h
N
Durchschnitt _ 5,5 C 75 % 1018,4 hPa #41,3 l/m 6,9 km/h N 1,4 C 3,9 C 21,5 km/h